Licenciado Benito Juarez International Airport
MMMX : now visible

Airfield :











YOU CAN JOIN US ON...

 
LOGIN :

Register | Disclaimer

   EN    FR    IT 

 









Legend :    VFR   Marginal VFR   IFR   Intensive IFR   Very Intensive IFR
Visi :
Ceiling :
>= 8 km
>= 3000ft
5 to 8 km
1000 to 3000 ft
1500m to 5 km
500 to 1000 ft
800 to 1500m
200 to 500 ft
< 800m
< 200 ft
Symbols :   Thunderstorms  Fog  Heavy snow  Heavy precipitations  Wind > 20 kt






- Airport Elevation : 7316 ft
- IATA code : MEX


MMMX - Licenciado Benito Juarez International

CURRENT METAR :
  • 161250Z 07007KT 12SM SCT220 07/00 A3028 NOSIG RMK 8/001

EXPIRED METARs :
  • 161235Z 09006KT 12SM SCT220 08/00 A3028 NOSIG RMK 8/001
  • 161150Z 00000KT 12SM FEW220 11/00 A3028 NOSIG RMK SLP109 52005 951 8/001
  • 161045Z 19004KT 12SM SKC 11/00 A3027 NOSIG RMK CI

TAF TAF MMMX
Valid from the 16 at 12:00 until the 17 at 18:00 UTC


161037Z 1612/1718 00000KT P6SM SKC TX23/1621Z TN11/1612Z
FM161800 22008KT P6SM SCT020
FM170600 36004KT P6SM SKC
BECMG 1711/1713 01004KT



MET'MAP, your aeronautical weather chart ! - Copyright ORBIFLY December 2007 - Disclaimer

ORBIFLY MET'MAP TEAM :

Programming & Development : Alexandra Zaïnal
Concept & original design : Baudouin d'Aumeries
Assistance for programming : Marc-Olivier Méhu
Technical & hardware support : Manuel Goepfert

Contact : metmap@orbifly.com




SOURCES & CREDITS :

   NOAA       Earth
Advisory